Time;durP1;ratioP1;P1;durP2;ratioP2;P2;SDS_P1;SDS_P2;PMS_P1;PMS_P2;Temp;Humidity;BMP_temperature;BMP_pressure;BME280_temperature;BME280_humidity;BME280_pressure;Samples;Min_cycle;Max_cycle;Signal;HPM_P1;HPM_P2
2022/01/05 00:01:59;;;;;;;;;;;13.70;58.70;;;;;;5100372;28;19950;-69
2022/01/05 00:04:25;;;;;;;;;;;13.70;58.60;;;;;;5100396;28;19912;-71
2022/01/05 00:06:50;;;;;;;;;;;13.70;58.60;;;;;;5100329;28;20279;-70
2022/01/05 00:09:16;;;;;;;;;;;13.60;58.70;;;;;;5100153;28;19923;-70
2022/01/05 00:11:42;;;;;;;;;;;13.60;59.00;;;;;;5100289;28;19939;-70
2022/01/05 00:14:07;;;;;;;;;;;13.60;59.10;;;;;;5100073;28;20112;-70
2022/01/05 00:16:34;;;;;;;;;;;13.50;59.10;;;;;;5100041;28;20273;-70
2022/01/05 00:19:00;;;;;;;;;;;13.60;59.10;;;;;;5081996;28;19908;-70
2022/01/05 00:21:25;;;;;;;;;;;13.60;59.00;;;;;;5100095;28;20246;-70
2022/01/05 00:23:51;;;;;;;;;;;13.60;58.90;;;;;;5100266;28;20382;-70
2022/01/05 00:26:17;;;;;;;;;;;13.70;58.80;;;;;;5100106;28;19908;-70
2022/01/05 00:28:43;;;;;;;;;;;13.70;58.80;;;;;;5100120;28;19912;-69
2022/01/05 00:31:08;;;;;;;;;;;13.70;58.70;;;;;;5100063;28;20014;-69
2022/01/05 00:33:34;;;;;;;;;;;13.70;58.70;;;;;;5100019;28;20358;-69
2022/01/05 00:35:59;;;;;;;;;;;13.70;58.60;;;;;;5099886;28;19951;-69
2022/01/05 00:38:25;;;;;;;;;;;13.60;59.40;;;;;;5099916;28;19908;-70
2022/01/05 00:40:51;;;;;;;;;;;13.60;59.00;;;;;;5099903;28;19949;-70
2022/01/05 00:43:16;;;;;;;;;;;13.60;59.00;;;;;;5099861;28;20112;-70
2022/01/05 00:45:42;;;;;;;;;;;13.60;59.00;;;;;;5100052;28;19915;-70
2022/01/05 00:48:07;;;;;;;;;;;13.60;59.00;;;;;;5099859;28;19908;-71
2022/01/05 00:50:33;;;;;;;;;;;13.60;59.10;;;;;;5099819;28;19974;-70
2022/01/05 00:53:00;;;;;;;;;;;13.50;59.00;;;;;;5099827;28;19969;-70
2022/01/05 00:55:29;;;;;;;;;;;13.50;59.10;;;;;;5099741;28;19913;-70
2022/01/05 00:57:55;;;;;;;;;;;13.50;59.10;;;;;;5099763;28;19931;-70
2022/01/05 01:00:21;;;;;;;;;;;13.50;59.20;;;;;;5099354;28;20224;-70
2022/01/05 01:02:47;;;;;;;;;;;13.50;59.10;;;;;;5099763;28;20194;-70
2022/01/05 01:05:14;;;;;;;;;;;13.60;59.00;;;;;;5099710;28;19915;-70
2022/01/05 01:07:40;;;;;;;;;;;13.70;58.90;;;;;;5099770;28;19912;-70
2022/01/05 01:10:06;;;;;;;;;;;13.70;58.80;;;;;;5099508;28;20193;-69
2022/01/05 01:12:34;;;;;;;;;;;13.70;58.70;;;;;;5099558;28;19912;-70
2022/01/05 01:15:00;;;;;;;;;;;13.70;58.70;;;;;;5099570;28;19939;-70
2022/01/05 01:17:26;;;;;;;;;;;13.70;58.70;;;;;;5099609;28;19911;-70
2022/01/05 01:19:52;;;;;;;;;;;13.70;58.70;;;;;;5099658;28;19908;-70
2022/01/05 01:22:17;;;;;;;;;;;13.60;58.80;;;;;;5099555;28;19915;-71
2022/01/05 01:24:43;;;;;;;;;;;13.60;59.00;;;;;;5099438;28;19907;-70
2022/01/05 01:27:08;;;;;;;;;;;13.50;59.10;;;;;;5084461;28;19904;-70
2022/01/05 01:29:34;;;;;;;;;;;13.50;59.10;;;;;;5103265;28;19961;-70
2022/01/05 01:32:00;;;;;;;;;;;13.50;59.20;;;;;;5085123;28;19915;-71
2022/01/05 01:34:25;;;;;;;;;;;13.50;59.20;;;;;;5084983;28;19979;-70
2022/01/05 01:36:51;;;;;;;;;;;13.50;59.20;;;;;;5103181;28;20225;-70
2022/01/05 01:39:16;;;;;;;;;;;13.50;59.10;;;;;;5084811;28;19984;-70
2022/01/05 01:41:42;;;;;;;;;;;13.60;59.10;;;;;;5103073;28;19908;-70
2022/01/05 01:44:07;;;;;;;;;;;13.60;59.00;;;;;;5103128;28;19916;-70
2022/01/05 01:46:33;;;;;;;;;;;13.60;59.00;;;;;;5102983;28;19908;-70
2022/01/05 01:48:59;;;;;;;;;;;13.60;59.00;;;;;;5084726;28;19907;-70
2022/01/05 01:51:24;;;;;;;;;;;13.60;59.00;;;;;;5102865;28;19929;-71
2022/01/05 01:53:50;;;;;;;;;;;13.60;59.00;;;;;;5102771;28;20104;-70
2022/01/05 01:56:16;;;;;;;;;;;13.70;58.90;;;;;;5102907;28;20379;-70
2022/01/05 01:58:44;;;;;;;;;;;13.70;58.80;;;;;;5084559;28;19987;-69
2022/01/05 02:01:09;;;;;;;;;;;13.70;58.70;;;;;;5102717;28;20018;-69
2022/01/05 02:03:35;;;;;;;;;;;13.70;58.60;;;;;;5102720;28;19934;-69
2022/01/05 02:06:00;;;;;;;;;;;13.70;58.70;;;;;;5102723;28;19934;-70
2022/01/05 02:08:27;;;;;;;;;;;13.60;58.70;;;;;;5102666;28;19908;-70
2022/01/05 02:10:53;;;;;;;;;;;13.60;58.90;;;;;;5102533;28;19912;-70
2022/01/05 02:13:19;;;;;;;;;;;13.60;59.00;;;;;;5102571;28;19908;-70
2022/01/05 02:15:44;;;;;;;;;;;13.60;59.10;;;;;;5102319;28;19966;-69
2022/01/05 02:18:21;;;;;;;;;;;13.60;59.10;;;;;;5102330;28;19900;-70
2022/01/05 02:20:47;;;;;;;;;;;13.60;59.10;;;;;;5102482;28;19935;-70
2022/01/05 02:23:13;;;;;;;;;;;13.60;59.00;;;;;;5102259;28;19950;-70
2022/01/05 02:25:38;;;;;;;;;;;13.60;59.10;;;;;;5102317;28;19900;-70
2022/01/05 02:28:04;;;;;;;;;;;13.60;59.10;;;;;;5102249;28;19915;-70
2022/01/05 02:30:30;;;;;;;;;;;13.60;59.10;;;;;;5083905;28;19914;-69
2022/01/05 02:32:56;;;;;;;;;;;13.60;59.00;;;;;;5102121;28;19908;-70
2022/01/05 02:35:22;;;;;;;;;;;13.60;59.00;;;;;;5101970;28;19911;-70
2022/01/05 02:37:52;;;;;;;;;;;13.60;59.00;;;;;;5100755;28;20120;-70
2022/01/05 02:40:19;;;;;;;;;;;13.60;58.90;;;;;;5102005;28;19908;-71
2022/01/05 02:42:45;;;;;;;;;;;13.70;58.80;;;;;;5101957;28;19914;-70
2022/01/05 02:45:11;;;;;;;;;;;13.70;58.90;;;;;;5101791;28;19915;-69
2022/01/05 02:47:37;;;;;;;;;;;13.70;58.80;;;;;;5083783;28;19908;-70
2022/01/05 02:50:04;;;;;;;;;;;13.60;58.70;;;;;;5101778;28;19915;-70
2022/01/05 02:52:29;;;;;;;;;;;13.60;58.90;;;;;;5101769;28;19915;-70
2022/01/05 02:54:55;;;;;;;;;;;13.60;59.00;;;;;;5101566;28;19908;-71
2022/01/05 02:57:20;;;;;;;;;;;13.50;59.10;;;;;;5101714;28;20127;-70
2022/01/05 02:59:46;;;;;;;;;;;13.50;59.10;;;;;;5101598;28;19961;-70
2022/01/05 03:02:12;;;;;;;;;;;13.50;59.10;;;;;;5101575;28;20115;-70
2022/01/05 03:04:37;;;;;;;;;;;13.60;59.10;;;;;;5101530;28;19930;-70
2022/01/05 03:07:03;;;;;;;;;;;13.70;58.90;;;;;;5101524;28;19908;-71
2022/01/05 03:09:28;;;;;;;;;;;13.70;58.60;;;;;;5101296;28;20190;-70
2022/01/05 03:11:54;;;;;;;;;;;13.70;58.60;;;;;;5101364;28;19908;-71
2022/01/05 03:14:20;;;;;;;;;;;13.80;58.50;;;;;;5101209;28;19935;-70
2022/01/05 03:16:46;;;;;;;;;;;13.70;58.60;;;;;;5101207;28;19914;-70
2022/01/05 03:19:11;;;;;;;;;;;13.60;58.80;;;;;;5101258;28;20197;-70
2022/01/05 03:21:37;;;;;;;;;;;13.60;59.00;;;;;;5101263;28;20278;-71
2022/01/05 03:24:02;;;;;;;;;;;13.50;59.00;;;;;;5101119;28;19908;-72
2022/01/05 03:26:28;;;;;;;;;;;13.60;59.10;;;;;;5101049;28;19931;-71
2022/01/05 03:28:54;;;;;;;;;;;13.60;59.10;;;;;;5101058;28;20346;-71
2022/01/05 03:31:19;;;;;;;;;;;13.60;59.00;;;;;;5100964;28;19911;-70
2022/01/05 03:33:45;;;;;;;;;;;13.60;59.00;;;;;;5082657;28;19930;-70
2022/01/05 03:36:10;;;;;;;;;;;13.50;59.10;;;;;;5100791;28;19912;-71
2022/01/05 03:38:36;;;;;;;;;;;13.50;59.10;;;;;;5100837;28;20010;-70
2022/01/05 03:41:02;;;;;;;;;;;13.50;59.20;;;;;;5082581;28;20215;-71
2022/01/05 03:43:27;;;;;;;;;;;13.50;59.10;;;;;;5100766;28;19957;-72
2022/01/05 03:45:53;;;;;;;;;;;13.60;59.20;;;;;;5100634;28;19953;-70
2022/01/05 03:48:19;;;;;;;;;;;13.60;59.00;;;;;;5100288;28;20069;-70
2022/01/05 03:50:45;;;;;;;;;;;13.70;58.90;;;;;;5082399;28;19908;-70
2022/01/05 03:53:11;;;;;;;;;;;13.70;58.80;;;;;;5082363;28;19914;-70
2022/01/05 03:55:38;;;;;;;;;;;13.70;58.70;;;;;;5100694;28;19957;-70
2022/01/05 03:58:04;;;;;;;;;;;13.70;58.70;;;;;;5082226;28;19915;-71
2022/01/05 04:00:30;;;;;;;;;;;13.60;58.90;;;;;;5100461;28;20275;-70
2022/01/05 04:02:56;;;;;;;;;;;13.60;59.00;;;;;;5100217;28;19976;-70
2022/01/05 04:05:22;;;;;;;;;;;13.60;59.00;;;;;;5100356;28;19915;-70
2022/01/05 04:07:49;;;;;;;;;;;13.60;59.10;;;;;;5082193;28;19908;-70
2022/01/05 04:10:16;;;;;;;;;;;13.60;59.00;;;;;;5081992;28;20252;-71
2022/01/05 04:12:41;;;;;;;;;;;13.60;58.90;;;;;;5100237;28;19915;-70
2022/01/05 04:15:07;;;;;;;;;;;13.60;59.00;;;;;;5100177;28;19939;-70
2022/01/05 04:17:33;;;;;;;;;;;13.60;59.10;;;;;;5100143;28;20163;-70
2022/01/05 04:19:58;;;;;;;;;;;13.50;59.10;;;;;;5100123;28;19915;-70
2022/01/05 04:22:24;;;;;;;;;;;13.50;59.20;;;;;;5100023;28;19914;-70
2022/01/05 04:24:50;;;;;;;;;;;13.50;59.20;;;;;;5100064;28;20163;-70
2022/01/05 04:27:15;;;;;;;;;;;13.50;59.20;;;;;;5099996;28;19998;-71
2022/01/05 04:29:41;;;;;;;;;;;13.60;59.20;;;;;;5099986;28;20089;-70
2022/01/05 04:32:07;;;;;;;;;;;13.60;59.10;;;;;;5099969;28;20254;-71
2022/01/05 04:34:32;;;;;;;;;;;13.60;59.00;;;;;;5099849;28;19912;-71
2022/01/05 04:36:58;;;;;;;;;;;13.70;58.90;;;;;;5081723;28;19915;-70
2022/01/05 04:39:24;;;;;;;;;;;13.60;58.80;;;;;;5099880;28;19900;-71
2022/01/05 04:41:49;;;;;;;;;;;13.60;58.90;;;;;;5099948;28;20222;-71
2022/01/05 04:44:15;;;;;;;;;;;13.60;58.90;;;;;;5081719;28;19915;-69
2022/01/05 04:46:40;;;;;;;;;;;13.60;59.00;;;;;;5099857;28;19971;-71
2022/01/05 04:49:06;;;;;;;;;;;13.60;59.00;;;;;;5081663;28;19915;-70
2022/01/05 04:51:31;;;;;;;;;;;13.60;59.00;;;;;;5099792;28;19908;-70
2022/01/05 04:53:57;;;;;;;;;;;13.60;59.00;;;;;;5099675;28;19979;-70
2022/01/05 04:56:22;;;;;;;;;;;13.60;59.10;;;;;;5099765;28;20313;-70
2022/01/05 04:58:48;;;;;;;;;;;13.60;59.10;;;;;;5099805;28;19908;-71
2022/01/05 05:01:14;;;;;;;;;;;13.50;59.20;;;;;;5101403;28;19900;-71
2022/01/05 05:03:40;;;;;;;;;;;13.50;59.20;;;;;;5103815;28;19908;-70
2022/01/05 05:06:05;;;;;;;;;;;13.50;59.20;;;;;;5103785;28;20045;-71
2022/01/05 05:08:31;;;;;;;;;;;13.50;59.10;;;;;;5085352;28;20219;-70
2022/01/05 05:10:56;;;;;;;;;;;13.60;59.10;;;;;;5085489;28;19912;-71
2022/01/05 05:13:22;;;;;;;;;;;13.60;59.10;;;;;;5103673;28;20100;-71
2022/01/05 05:15:47;;;;;;;;;;;13.70;59.00;;;;;;5103531;28;19915;-71
2022/01/05 05:18:13;;;;;;;;;;;13.70;58.90;;;;;;5103589;28;19966;-70
2022/01/05 05:20:40;;;;;;;;;;;13.70;58.80;;;;;;5085279;28;19900;-71
2022/01/05 05:23:06;;;;;;;;;;;13.70;58.90;;;;;;5103459;28;19923;-70
2022/01/05 05:25:32;;;;;;;;;;;13.60;58.90;;;;;;5103370;28;19931;-71
2022/01/05 05:27:57;;;;;;;;;;;13.60;58.80;;;;;;5085162;28;19914;-70
2022/01/05 05:30:23;;;;;;;;;;;13.60;58.80;;;;;;5103279;28;19908;-70
2022/01/05 05:32:48;;;;;;;;;;;13.60;58.90;;;;;;5103316;28;19922;-70
2022/01/05 05:35:16;;;;;;;;;;;13.60;58.90;;;;;;5103144;28;20235;-71
2022/01/05 05:37:41;;;;;;;;;;;13.60;59.00;;;;;;5084995;28;19961;-71
2022/01/05 05:40:07;;;;;;;;;;;13.50;59.20;;;;;;5084992;28;19912;-70
2022/01/05 05:42:32;;;;;;;;;;;13.50;59.30;;;;;;5103099;28;20395;-71
2022/01/05 05:44:58;;;;;;;;;;;13.50;59.30;;;;;;5103021;28;19915;-70
2022/01/05 05:47:24;;;;;;;;;;;13.50;59.40;;;;;;5103018;28;20349;-71
2022/01/05 05:49:49;;;;;;;;;;;13.50;59.40;;;;;;5102924;28;19908;-70
2022/01/05 05:52:15;;;;;;;;;;;13.50;59.30;;;;;;5102921;28;19939;-70
2022/01/05 05:54:41;;;;;;;;;;;13.50;59.30;;;;;;5102788;28;19982;-70
2022/01/05 05:57:07;;;;;;;;;;;13.60;59.20;;;;;;5102899;28;19915;-70
2022/01/05 05:59:32;;;;;;;;;;;13.60;59.20;;;;;;5102732;28;19915;-70
2022/01/05 06:01:58;;;;;;;;;;;13.60;59.10;;;;;;5102767;28;19911;-71
2022/01/05 06:04:24;;;;;;;;;;;13.60;59.00;;;;;;5102685;28;19922;-71
2022/01/05 06:06:49;;;;;;;;;;;13.70;58.90;;;;;;5102610;28;19983;-70
2022/01/05 06:09:15;;;;;;;;;;;13.70;58.70;;;;;;5102380;28;19979;-70
2022/01/05 06:11:40;;;;;;;;;;;13.80;58.60;;;;;;5102266;28;19911;-70
2022/01/05 06:14:06;;;;;;;;;;;13.70;58.50;;;;;;5102366;28;19944;-70
2022/01/05 06:16:31;;;;;;;;;;;13.70;58.70;;;;;;5102543;28;20006;-70
2022/01/05 06:18:57;;;;;;;;;;;13.60;58.80;;;;;;5102432;28;19950;-70
2022/01/05 06:21:23;;;;;;;;;;;13.50;59.00;;;;;;5102418;28;19915;-71
2022/01/05 06:23:48;;;;;;;;;;;13.50;59.20;;;;;;5102374;28;19943;-71
2022/01/05 06:26:14;;;;;;;;;;;13.50;59.30;;;;;;5102306;28;19900;-70
2022/01/05 06:28:39;;;;;;;;;;;13.50;60.10;;;;;;5102322;28;20231;-70
2022/01/05 06:31:05;;;;;;;;;;;13.40;59.40;;;;;;5102172;28;19914;-71
2022/01/05 06:33:30;;;;;;;;;;;13.50;59.50;;;;;;5102155;28;19967;-70
2022/01/05 06:35:56;;;;;;;;;;;13.40;59.40;;;;;;5102071;28;19919;-70
2022/01/05 06:38:22;;;;;;;;;;;13.50;59.40;;;;;;5102080;28;19908;-71
2022/01/05 06:40:47;;;;;;;;;;;13.50;59.40;;;;;;5083852;28;19908;-70
2022/01/05 06:43:14;;;;;;;;;;;13.50;59.30;;;;;;5101995;28;20100;-71
2022/01/05 06:45:40;;;;;;;;;;;13.60;59.30;;;;;;5101927;28;19983;-70
2022/01/05 06:48:05;;;;;;;;;;;13.60;59.10;;;;;;5101890;28;20104;-70
2022/01/05 06:50:31;;;;;;;;;;;13.60;59.00;;;;;;5083710;28;19915;-70
2022/01/05 06:52:57;;;;;;;;;;;13.70;58.90;;;;;;5101777;28;19974;-70
2022/01/05 06:55:23;;;;;;;;;;;13.70;58.70;;;;;;5101664;28;19983;-71
2022/01/05 06:57:51;;;;;;;;;;;13.70;58.60;;;;;;5101709;28;19908;-70
2022/01/05 07:00:17;;;;;;;;;;;13.70;58.60;;;;;;5101651;28;19912;-71
2022/01/05 07:02:43;;;;;;;;;;;13.60;58.80;;;;;;5101637;28;19908;-70
2022/01/05 07:05:08;;;;;;;;;;;13.60;59.00;;;;;;5101609;28;19915;-70
2022/01/05 07:07:35;;;;;;;;;;;13.60;59.10;;;;;;5101526;28;19975;-70
2022/01/05 07:10:00;;;;;;;;;;;13.60;59.20;;;;;;5083094;28;20192;-70
2022/01/05 07:12:26;;;;;;;;;;;13.60;59.20;;;;;;5101371;28;19975;-70
2022/01/05 07:14:52;;;;;;;;;;;13.50;59.20;;;;;;5101304;28;19950;-70
2022/01/05 07:17:18;;;;;;;;;;;13.50;59.30;;;;;;5083148;28;20197;-70
2022/01/05 07:19:44;;;;;;;;;;;13.50;59.40;;;;;;5083141;28;19907;-70
2022/01/05 07:22:09;;;;;;;;;;;13.50;59.40;;;;;;5083126;28;20162;-70
2022/01/05 07:24:35;;;;;;;;;;;13.50;59.50;;;;;;5082332;28;20093;-69
2022/01/05 07:27:00;;;;;;;;;;;13.50;59.40;;;;;;5101154;28;19957;-70
2022/01/05 07:29:26;;;;;;;;;;;13.60;59.30;;;;;;5101123;28;19907;-70
2022/01/05 07:31:52;;;;;;;;;;;13.60;59.10;;;;;;5082782;28;19951;-69
2022/01/05 07:34:17;;;;;;;;;;;13.70;59.00;;;;;;5100926;28;19969;-70
2022/01/05 07:36:43;;;;;;;;;;;13.70;58.80;;;;;;5082738;28;20249;-70
2022/01/05 07:39:08;;;;;;;;;;;13.70;58.80;;;;;;5100910;28;19946;-70
2022/01/05 07:41:35;;;;;;;;;;;13.70;58.70;;;;;;5101125;28;19908;-70
2022/01/05 07:44:01;;;;;;;;;;;13.70;58.80;;;;;;5100922;28;19907;-70
2022/01/05 07:46:26;;;;;;;;;;;13.60;59.00;;;;;;5100837;28;20123;-70
2022/01/05 07:48:52;;;;;;;;;;;13.60;59.10;;;;;;5100747;28;19984;-70
2022/01/05 07:51:18;;;;;;;;;;;13.60;59.20;;;;;;5082483;28;20146;-70
2022/01/05 07:53:44;;;;;;;;;;;13.60;59.20;;;;;;5100738;28;20018;-70
2022/01/05 07:56:09;;;;;;;;;;;13.60;59.20;;;;;;5082325;28;19911;-71
2022/01/05 07:58:35;;;;;;;;;;;13.60;59.20;;;;;;5100562;28;19915;-70
2022/01/05 08:01:02;;;;;;;;;;;13.50;59.30;;;;;;5082436;28;19914;-69
2022/01/05 08:03:28;;;;;;;;;;;13.50;59.40;;;;;;5100551;28;19908;-69
2022/01/05 08:05:53;;;;;;;;;;;13.50;59.40;;;;;;5100417;28;19907;-70
2022/01/05 08:08:19;;;;;;;;;;;13.50;59.40;;;;;;5100274;28;19934;-70
2022/01/05 08:10:44;;;;;;;;;;;13.50;59.30;;;;;;5100367;28;19983;-70
2022/01/05 08:13:10;;;;;;;;;;;13.60;59.30;;;;;;5100354;28;19900;-70
2022/01/05 08:15:36;;;;;;;;;;;13.60;59.70;;;;;;5082050;28;19912;-71
2022/01/05 08:18:01;;;;;;;;;;;13.70;59.00;;;;;;5100349;28;20219;-70
2022/01/05 08:20:27;;;;;;;;;;;13.70;58.90;;;;;;5100240;28;20248;-70
2022/01/05 08:22:52;;;;;;;;;;;13.70;58.80;;;;;;5082017;28;19908;-71
2022/01/05 08:25:20;;;;;;;;;;;13.70;58.80;;;;;;5100272;28;19908;-71
2022/01/05 08:27:46;;;;;;;;;;;13.70;58.70;;;;;;5100177;28;19938;-70
2022/01/05 08:30:13;;;;;;;;;;;13.70;59.10;;;;;;5100134;28;20207;-70
2022/01/05 08:32:39;;;;;;;;;;;13.60;58.90;;;;;;5100151;28;19979;-71
2022/01/05 08:35:04;;;;;;;;;;;13.60;59.00;;;;;;5099908;28;19953;-70
2022/01/05 08:37:30;;;;;;;;;;;13.60;59.00;;;;;;5081898;28;19907;-70
2022/01/05 08:39:56;;;;;;;;;;;13.60;59.10;;;;;;5099959;28;19907;-70
2022/01/05 08:42:21;;;;;;;;;;;13.60;59.00;;;;;;5099978;28;19907;-69
2022/01/05 08:44:47;;;;;;;;;;;13.60;59.10;;;;;;5099959;28;20105;-70
2022/01/05 08:47:13;;;;;;;;;;;13.60;59.00;;;;;;5099902;28;19970;-70
2022/01/05 08:49:38;;;;;;;;;;;13.60;59.00;;;;;;5099948;28;19915;-70
2022/01/05 08:52:04;;;;;;;;;;;13.60;59.00;;;;;;5099852;28;19931;-68
2022/01/05 08:54:30;;;;;;;;;;;13.60;59.00;;;;;;5099831;28;19911;-70
2022/01/05 08:56:55;;;;;;;;;;;13.70;59.00;;;;;;5099830;28;19969;-70
2022/01/05 08:59:21;;;;;;;;;;;13.70;59.00;;;;;;5099844;28;20105;-70
2022/01/05 09:01:47;;;;;;;;;;;13.70;58.90;;;;;;5081708;28;19908;-70
2022/01/05 09:04:12;;;;;;;;;;;13.70;58.90;;;;;;5099814;28;19908;-70
2022/01/05 09:06:38;;;;;;;;;;;13.70;58.80;;;;;;5099700;28;19908;-70
2022/01/05 09:09:04;;;;;;;;;;;13.80;58.80;;;;;;5099573;28;20046;-70
2022/01/05 09:11:29;;;;;;;;;;;13.80;58.80;;;;;;5099793;28;19930;-71
2022/01/05 09:13:55;;;;;;;;;;;13.80;58.80;;;;;;5099668;28;20074;-69
2022/01/05 09:16:21;;;;;;;;;;;13.80;58.80;;;;;;5081441;28;20085;-69
2022/01/05 09:18:47;;;;;;;;;;;13.70;58.70;;;;;;5099671;28;19915;-70
2022/01/05 09:21:12;;;;;;;;;;;13.70;58.80;;;;;;5099657;28;19951;-70
2022/01/05 09:23:38;;;;;;;;;;;13.70;58.90;;;;;;5099566;28;19908;-70
2022/01/05 09:26:04;;;;;;;;;;;13.70;58.90;;;;;;5081337;28;20380;-70
2022/01/05 09:28:29;;;;;;;;;;;13.70;58.90;;;;;;5099532;28;20219;-70
2022/01/05 09:30:55;;;;;;;;;;;13.70;59.00;;;;;;5099484;28;19908;-69
2022/01/05 09:33:23;;;;;;;;;;;13.70;58.90;;;;;;5099547;28;20223;-70
2022/01/05 09:35:50;;;;;;;;;;;13.70;59.00;;;;;;5099355;28;19919;-70
2022/01/05 09:43:56;;;;;;;;;;;13.70;58.80;;;;;;5099445;28;19915;-70
2022/01/05 09:46:33;;;;;;;;;;;13.70;58.80;;;;;;5099645;28;19975;-70
2022/01/05 09:48:59;;;;;;;;;;;13.70;58.80;;;;;;5103129;28;20226;-69
2022/01/05 09:51:25;;;;;;;;;;;13.70;58.80;;;;;;5102999;28;19908;-69
2022/01/05 09:53:51;;;;;;;;;;;13.80;58.90;;;;;;5102967;28;19900;-69
2022/01/05 09:56:16;;;;;;;;;;;13.70;58.80;;;;;;5084476;28;19951;-70
2022/01/05 09:58:42;;;;;;;;;;;13.70;58.80;;;;;;5084614;28;19915;-70
2022/01/05 10:01:09;;;;;;;;;;;13.80;58.90;;;;;;5084516;28;19978;-70
2022/01/05 10:03:35;;;;;;;;;;;13.70;58.90;;;;;;5102737;28;19912;-70
2022/01/05 10:06:01;;;;;;;;;;;13.80;59.00;;;;;;5102742;28;19912;-69
2022/01/05 10:08:27;;;;;;;;;;;13.80;59.00;;;;;;5102488;28;20192;-70
2022/01/05 10:10:53;;;;;;;;;;;13.80;59.00;;;;;;5102573;28;19912;-70
2022/01/05 10:13:18;;;;;;;;;;;13.80;58.90;;;;;;5102586;28;19958;-70
2022/01/05 10:15:44;;;;;;;;;;;13.80;58.90;;;;;;5102440;28;20085;-70
2022/01/05 10:18:11;;;;;;;;;;;13.80;58.90;;;;;;5102509;28;19983;-70
2022/01/05 10:20:37;;;;;;;;;;;13.80;58.80;;;;;;5102568;28;19908;-69
2022/01/05 10:23:03;;;;;;;;;;;13.80;58.80;;;;;;5102435;28;20297;-70
2022/01/05 10:25:29;;;;;;;;;;;13.80;58.80;;;;;;5102419;28;19968;-70
2022/01/05 10:27:58;;;;;;;;;;;13.80;58.80;;;;;;5084162;28;20089;-70
2022/01/05 10:30:40;;;;;;;;;;;13.70;58.80;;;;;;5084022;28;19900;-70
2022/01/05 10:33:07;;;;;;;;;;;13.80;58.90;;;;;;5084085;28;19923;-71
2022/01/05 10:35:33;;;;;;;;;;;13.80;58.90;;;;;;5102095;28;19951;-70
2022/01/05 10:38:00;;;;;;;;;;;13.80;58.90;;;;;;5102124;28;19900;-70
2022/01/05 10:40:26;;;;;;;;;;;13.80;58.90;;;;;;5102319;28;19908;-69
2022/01/05 10:42:54;;;;;;;;;;;13.80;58.80;;;;;;5101988;28;20227;-70
2022/01/05 10:45:40;;;;;;;;;;;13.80;59.00;;;;;;5101893;28;19915;-70
2022/01/05 10:48:06;;;;;;;;;;;13.80;59.00;;;;;;5101505;28;19900;-69
2022/01/05 10:50:32;;;;;;;;;;;13.70;59.00;;;;;;5101860;28;20131;-70
2022/01/05 10:52:58;;;;;;;;;;;13.80;59.00;;;;;;5101825;28;20440;-70
2022/01/05 10:55:25;;;;;;;;;;;13.80;59.00;;;;;;5101691;28;19912;-71
2022/01/05 10:57:55;;;;;;;;;;;13.70;58.90;;;;;;5101031;28;19900;-70
2022/01/05 11:00:29;;;;;;;;;;;13.70;58.90;;;;;;5101304;28;20188;-70
2022/01/05 11:02:55;;;;;;;;;;;13.80;58.90;;;;;;5101609;28;19918;-71
2022/01/05 11:05:20;;;;;;;;;;;13.80;58.90;;;;;;5083416;28;19943;-71
2022/01/05 11:07:47;;;;;;;;;;;13.80;58.80;;;;;;5101513;28;20204;-70
2022/01/05 11:10:14;;;;;;;;;;;13.80;58.80;;;;;;5101331;28;20236;-71
2022/01/05 11:12:41;;;;;;;;;;;13.80;58.80;;;;;;5101394;28;19915;-70
2022/01/05 11:15:22;;;;;;;;;;;13.70;58.70;;;;;;5101352;28;20116;-70
2022/01/05 11:18:08;;;;;;;;;;;13.70;58.90;;;;;;5101382;28;19945;-70
2022/01/05 11:20:55;;;;;;;;;;;13.70;58.90;;;;;;5101318;28;19899;-70
2022/01/05 11:23:22;;;;;;;;;;;13.70;58.80;;;;;;5083138;28;20119;-70
2022/01/05 11:25:48;;;;;;;;;;;13.80;58.90;;;;;;5101170;28;19945;-69
2022/01/05 11:28:14;;;;;;;;;;;13.80;59.00;;;;;;5101101;28;20156;-70
2022/01/05 11:30:41;;;;;;;;;;;13.80;59.00;;;;;;5101083;28;19908;-70
2022/01/05 11:33:07;;;;;;;;;;;13.80;59.10;;;;;;5100975;28;19911;-69
2022/01/05 11:35:33;;;;;;;;;;;13.80;59.10;;;;;;5082729;28;20002;-71
2022/01/05 11:37:59;;;;;;;;;;;13.80;59.00;;;;;;5101037;28;19912;-71
2022/01/05 11:40:25;;;;;;;;;;;13.80;59.00;;;;;;5100894;28;20149;-70
2022/01/05 11:42:56;;;;;;;;;;;13.70;58.80;;;;;;5100819;28;19900;-70
2022/01/05 11:45:31;;;;;;;;;;;13.70;58.90;;;;;;5100824;28;19939;-70
2022/01/05 11:48:11;;;;;;;;;;;13.70;59.00;;;;;;5082497;28;19972;-70
2022/01/05 11:50:41;;;;;;;;;;;13.70;59.00;;;;;;5100690;28;19971;-70
2022/01/05 11:53:08;;;;;;;;;;;13.70;59.00;;;;;;5100632;28;19942;-69
2022/01/05 11:55:56;;;;;;;;;;;13.70;59.00;;;;;;5082266;28;19912;-70
2022/01/05 11:58:25;;;;;;;;;;;13.70;59.10;;;;;;5100461;28;19979;-70
2022/01/05 12:01:11;;;;;;;;;;;13.60;59.10;;;;;;5100497;28;19938;-70
2022/01/05 12:03:52;;;;;;;;;;;13.60;59.10;;;;;;5082592;28;20200;-70
2022/01/05 12:06:19;;;;;;;;;;;13.60;59.20;;;;;;5100494;28;19917;-69
2022/01/05 12:08:49;;;;;;;;;;;13.60;59.20;;;;;;5100336;28;19916;-70
2022/01/05 12:11:33;;;;;;;;;;;13.70;59.20;;;;;;5100100;28;19915;-70
2022/01/05 12:14:00;;;;;;;;;;;13.70;59.20;;;;;;5100320;28;20180;-70
2022/01/05 12:16:25;;;;;;;;;;;13.80;59.10;;;;;;5100178;28;20196;-70
2022/01/05 12:19:08;;;;;;;;;;;13.80;59.00;;;;;;5100273;28;19915;-70
2022/01/05 12:21:47;;;;;;;;;;;13.80;59.00;;;;;;5100171;28;20107;-70
2022/01/05 12:24:14;;;;;;;;;;;13.80;58.90;;;;;;5100201;28;19908;-71
2022/01/05 12:26:39;;;;;;;;;;;13.80;58.80;;;;;;5100136;28;19950;-70
2022/01/05 12:29:05;;;;;;;;;;;13.70;59.50;;;;;;5081927;28;19908;-70
2022/01/05 12:31:57;;;;;;;;;;;13.70;59.00;;;;;;5100143;28;19908;-70
2022/01/05 12:34:53;;;;;;;;;;;13.70;59.10;;;;;;5094978;28;19919;-70
2022/01/05 12:37:38;;;;;;;;;;;13.70;59.10;;;;;;5065375;28;19907;-70
2022/01/05 12:40:22;;;;;;;;;;;13.60;59.20;;;;;;5099989;28;19915;-71
2022/01/05 12:42:48;;;;;;;;;;;13.60;59.20;;;;;;5099923;28;19908;-71
2022/01/05 12:45:36;;;;;;;;;;;13.60;59.20;;;;;;5099910;28;19915;-70
2022/01/05 12:48:02;;;;;;;;;;;13.60;59.20;;;;;;5099704;28;19943;-70
2022/01/05 12:50:31;;;;;;;;;;;13.60;59.20;;;;;;5099817;28;19908;-71
2022/01/05 12:52:57;;;;;;;;;;;13.60;59.30;;;;;;5099931;28;19973;-70
2022/01/05 12:55:23;;;;;;;;;;;13.60;59.40;;;;;;5099786;28;20170;-70
2022/01/05 12:57:54;;;;;;;;;;;13.60;59.30;;;;;;5099846;28;19908;-70
2022/01/05 13:00:20;;;;;;;;;;;13.70;59.40;;;;;;5081217;28;20112;-70
2022/01/05 13:02:47;;;;;;;;;;;13.70;59.20;;;;;;5099702;28;19908;-69
2022/01/05 13:05:12;;;;;;;;;;;13.80;59.10;;;;;;5099759;28;19900;-69
2022/01/05 13:07:41;;;;;;;;;;;13.80;59.00;;;;;;5099989;28;20153;-70
2022/01/05 13:10:13;;;;;;;;;;;13.80;58.90;;;;;;5099646;28;20216;-71
2022/01/05 13:12:39;;;;;;;;;;;13.70;58.80;;;;;;5081561;28;20184;-70
2022/01/05 13:15:07;;;;;;;;;;;13.70;59.00;;;;;;5099518;28;19975;-70
2022/01/05 13:17:38;;;;;;;;;;;13.60;59.10;;;;;;5099542;28;19908;-69
2022/01/05 13:20:08;;;;;;;;;;;13.70;59.20;;;;;;5099536;28;19915;-70
2022/01/05 13:22:38;;;;;;;;;;;13.70;59.10;;;;;;5101728;28;19915;-71
2022/01/05 13:25:05;;;;;;;;;;;13.70;59.00;;;;;;5103470;28;19907;-70
2022/01/05 13:27:36;;;;;;;;;;;13.80;59.00;;;;;;5103464;28;19995;-70
2022/01/05 13:30:04;;;;;;;;;;;13.80;58.90;;;;;;5103444;28;19915;-71
2022/01/05 13:32:31;;;;;;;;;;;13.70;58.90;;;;;;5103370;28;20279;-70
2022/01/05 13:34:58;;;;;;;;;;;13.70;59.10;;;;;;5103282;28;20212;-70
2022/01/05 13:37:32;;;;;;;;;;;13.60;59.30;;;;;;5084984;28;20003;-70
2022/01/05 13:39:59;;;;;;;;;;;13.60;59.40;;;;;;5103220;28;19957;-70
2022/01/05 13:42:30;;;;;;;;;;;13.60;59.50;;;;;;5103157;28;19908;-70
2022/01/05 13:44:55;;;;;;;;;;;13.60;59.40;;;;;;5084889;28;19900;-70
2022/01/05 13:47:22;;;;;;;;;;;13.60;59.40;;;;;;5103077;28;19908;-69
2022/01/05 13:50:07;;;;;;;;;;;13.70;59.30;;;;;;5084751;28;19908;-70
2022/01/05 13:52:32;;;;;;;;;;;13.70;59.10;;;;;;5084755;28;20147;-70
2022/01/05 13:54:58;;;;;;;;;;;13.70;59.10;;;;;;5102939;28;19919;-70
2022/01/05 13:57:27;;;;;;;;;;;13.60;59.20;;;;;;5102881;28;19906;-70
2022/01/05 14:00:05;;;;;;;;;;;13.60;59.30;;;;;;5102946;28;19915;-70
2022/01/05 14:02:32;;;;;;;;;;;13.60;59.40;;;;;;5102824;28;19951;-71
2022/01/05 14:04:59;;;;;;;;;;;13.60;59.30;;;;;;5102869;28;20132;-70
2022/01/05 14:07:25;;;;;;;;;;;13.60;59.20;;;;;;5102732;28;20373;-70
2022/01/05 14:10:20;;;;;;;;;;;13.70;59.10;;;;;;5102580;28;20447;-69
2022/01/05 14:12:48;;;;;;;;;;;13.70;59.00;;;;;;5080692;28;19900;-69
2022/01/05 14:15:14;;;;;;;;;;;13.80;58.80;;;;;;5102505;28;19911;-70
2022/01/05 14:17:57;;;;;;;;;;;13.70;58.80;;;;;;5102493;28;19911;-69
2022/01/05 14:20:23;;;;;;;;;;;13.70;59.10;;;;;;5102534;28;19908;-70
2022/01/05 14:23:08;;;;;;;;;;;13.60;59.20;;;;;;5102493;28;19908;-70